Time;durP1;ratioP1;P1;durP2;ratioP2;P2;SDS_P1;SDS_P2;PMS_P1;PMS_P2;Temp;Humidity;BMP_temperature;BMP_pressure;BME280_temperature;BME280_humidity;BME280_pressure;Samples;Min_cycle;Max_cycle;Signal;HPM_P1;HPM_P2
2021/12/02 00:02:24;;;;;;;1.33;0.80;;;;;;;5.37;72.93;98256.94;5005157;28;20241;-54
2021/12/02 00:04:51;;;;;;;6.73;1.27;;;;;;;5.45;72.80;98270.66;5004929;28;20280;-55
2021/12/02 00:07:18;;;;;;;2.20;0.80;;;;;;;5.43;72.30;98269.81;5005003;28;20256;-56
2021/12/02 00:09:46;;;;;;;1.83;0.90;;;;;;;5.39;72.05;98271.63;5010822;28;20233;-55
2021/12/02 00:12:12;;;;;;;2.83;1.30;;;;;;;5.46;73.42;98283.63;5004205;28;20650;-56
2021/12/02 00:14:42;;;;;;;1.47;0.63;;;;;;;5.39;72.53;98289.00;5004869;28;20229;-55
2021/12/02 00:17:14;;;;;;;1.20;0.90;;;;;;;5.37;72.73;98282.94;5003806;28;20863;-55
2021/12/02 00:22:28;;;;;;;5.10;0.97;;;;;;;5.28;72.38;98296.16;5004531;28;20243;-56
2021/12/02 00:24:57;;;;;;;2.10;0.80;;;;;;;5.23;72.91;98306.66;5003178;28;20249;-54
2021/12/02 00:27:25;;;;;;;2.23;0.90;;;;;;;5.29;73.33;98305.66;5002469;28;20253;-55
2021/12/02 00:29:54;;;;;;;1.03;0.67;;;;;;;5.31;73.39;98298.69;5000074;28;20256;-55
2021/12/02 00:32:23;;;;;;;1.00;0.70;;;;;;;5.23;72.43;98312.72;5003722;28;20326;-55
2021/12/02 00:34:50;;;;;;;1.17;0.50;;;;;;;5.38;73.45;98326.31;4994672;28;20770;-56
2021/12/02 00:37:16;;;;;;;1.33;0.60;;;;;;;5.44;73.65;98347.00;5002951;28;20283;-56
2021/12/02 00:39:42;;;;;;;5.10;1.20;;;;;;;5.30;74.03;98338.59;5003803;28;20230;-55
2021/12/02 00:42:10;;;;;;;0.80;0.80;;;;;;;5.08;80.16;98343.31;5003576;28;20257;-55
2021/12/02 00:44:37;;;;;;;4.67;0.97;;;;;;;4.87;87.42;98361.00;5003460;28;20529;-54
2021/12/02 00:47:04;;;;;;;1.47;0.50;;;;;;;4.60;91.93;98377.91;5000661;28;20327;-54
2021/12/02 00:49:31;;;;;;;0.57;0.57;;;;;;;4.30;95.94;98385.25;5002828;28;20307;-56
2021/12/02 00:52:00;;;;;;;0.73;0.50;;;;;;;4.06;99.80;98391.63;5003412;28;20247;-56
2021/12/02 00:54:27;;;;;;;1.23;1.00;;;;;;;3.83;100.00;98378.09;5000393;28;20724;-55
2021/12/02 00:56:55;;;;;;;1.83;0.70;;;;;;;3.70;100.00;98397.25;5003628;28;20260;-56
2021/12/02 00:59:22;;;;;;;0.80;0.77;;;;;;;3.48;100.00;98414.78;5002117;28;20787;-55
2021/12/02 01:01:49;;;;;;;2.07;1.40;;;;;;;3.39;100.00;98417.47;5003084;28;20286;-54
2021/12/02 01:04:19;;;;;;;2.60;0.93;;;;;;;3.34;100.00;98425.31;5001992;28;20237;-56
2021/12/02 01:06:47;;;;;;;3.33;1.33;;;;;;;3.16;100.00;98436.69;5001452;28;20330;-54
2021/12/02 01:09:13;;;;;;;2.53;1.20;;;;;;;3.18;100.00;98410.75;5001140;28;20317;-55
2021/12/02 01:11:40;;;;;;;0.50;0.50;;;;;;;3.00;100.00;98403.97;5008732;28;20318;-56
2021/12/02 01:14:09;;;;;;;0.93;0.93;;;;;;;2.79;100.00;98421.41;5006906;28;20346;-56
2021/12/02 01:16:35;;;;;;;1.17;0.47;;;;;;;2.62;100.00;98415.47;5006095;28;20326;-57
2021/12/02 01:19:02;;;;;;;1.00;0.90;;;;;;;2.80;100.00;98438.66;5006143;28;20251;-55
2021/12/02 01:21:29;;;;;;;0.47;0.40;;;;;;;2.72;100.00;98419.75;5006173;28;20709;-54
2021/12/02 01:24:00;;;;;;;0.40;0.40;;;;;;;2.78;100.00;98431.81;5007438;28;20235;-56
2021/12/02 01:26:28;;;;;;;3.27;0.50;;;;;;;2.67;100.00;98439.66;5007020;28;20237;-55
2021/12/02 01:28:56;;;;;;;1.70;0.37;;;;;;;2.70;100.00;98439.59;5006815;28;20259;-56
2021/12/02 01:31:23;;;;;;;2.03;0.47;;;;;;;2.83;100.00;98433.47;5004871;28;20232;-56
2021/12/02 01:33:50;;;;;;;1.80;0.87;;;;;;;2.65;100.00;98443.09;5001520;28;20298;-56
2021/12/02 01:36:16;;;;;;;0.40;0.30;;;;;;;2.71;100.00;98459.47;5006322;28;20290;-55
2021/12/02 01:38:42;;;;;;;0.30;0.30;;;;;;;2.78;98.94;98455.13;5005795;28;20598;-56
2021/12/02 01:41:10;;;;;;;1.40;0.30;;;;;;;2.90;96.83;98459.34;5006465;28;20240;-55
2021/12/02 01:43:47;;;;;;;0.30;0.30;;;;;;;2.97;94.63;98453.25;5002411;28;20281;-56
2021/12/02 01:46:14;;;;;;;0.87;0.40;;;;;;;3.12;90.75;98463.50;5004698;28;20309;-55
2021/12/02 01:48:42;;;;;;;0.43;0.43;;;;;;;3.24;89.72;98450.44;5006846;28;20278;-55
2021/12/02 01:51:11;;;;;;;1.17;0.57;;;;;;;3.28;88.23;98457.31;5005624;28;20236;-55
2021/12/02 01:53:39;;;;;;;3.07;0.63;;;;;;;3.33;88.29;98452.09;5004392;28;20791;-56
2021/12/02 01:56:11;;;;;;;1.30;0.43;;;;;;;3.25;87.42;98449.56;5000821;28;20268;-56
2021/12/02 01:58:42;;;;;;;0.37;0.30;;;;;;;3.29;86.42;98453.84;5005590;28;20344;-56
2021/12/02 02:01:14;;;;;;;1.60;0.57;;;;;;;3.35;85.78;98461.56;5004070;28;20268;-56
2021/12/02 02:03:41;;;;;;;1.73;0.30;;;;;;;3.50;85.32;98460.56;5004767;28;20249;-56
2021/12/02 02:06:09;;;;;;;1.30;0.73;;;;;;;3.46;85.45;98465.81;5004434;28;20286;-55
2021/12/02 02:08:36;;;;;;;0.93;0.60;;;;;;;3.50;85.09;98462.31;5004457;28;20228;-54
2021/12/02 02:11:02;;;;;;;0.50;0.40;;;;;;;3.39;84.20;98469.34;5006563;28;20263;-56
2021/12/02 02:13:30;;;;;;;2.30;0.70;;;;;;;3.24;84.46;98467.75;5005270;28;20314;-59
2021/12/02 02:15:56;;;;;;;2.63;0.37;;;;;;;3.25;84.38;98488.47;5011571;28;20278;-54
2021/12/02 02:18:23;;;;;;;0.47;0.37;;;;;;;3.27;83.13;98478.94;5018808;28;20267;-56
2021/12/02 02:20:58;;;;;;;1.50;0.40;;;;;;;3.37;83.87;98481.44;5013797;28;20239;-56
2021/12/02 02:23:26;;;;;;;0.30;0.30;;;;;;;3.39;84.63;98484.91;5005417;28;21794;-55
2021/12/02 02:25:52;;;;;;;0.40;0.40;;;;;;;3.46;85.44;98476.19;5002831;28;20252;-55
2021/12/02 02:28:19;;;;;;;2.37;0.60;;;;;;;3.28;86.98;98503.13;5004392;28;20236;-59
2021/12/02 02:30:45;;;;;;;0.50;0.40;;;;;;;3.25;89.09;98491.06;5005226;28;20326;-54
2021/12/02 02:33:12;;;;;;;1.50;0.60;;;;;;;3.38;90.15;98507.38;5006071;28;20243;-56
2021/12/02 02:35:39;;;;;;;0.77;0.60;;;;;;;3.31;91.08;98511.75;5006022;28;20646;-55
2021/12/02 02:38:06;;;;;;;0.40;0.40;;;;;;;3.37;91.91;98502.19;5003781;28;21201;-55
2021/12/02 02:40:33;;;;;;;0.57;0.47;;;;;;;3.29;92.29;98516.09;5003759;28;20263;-56
2021/12/02 02:43:06;;;;;;;0.70;0.37;;;;;;;3.28;91.75;98516.09;4997191;28;20280;-56
2021/12/02 02:45:33;;;;;;;3.67;0.60;;;;;;;3.36;91.29;98527.28;5005173;28;20244;-57
2021/12/02 02:47:59;;;;;;;2.20;0.63;;;;;;;3.40;90.81;98509.94;5005834;28;20360;-55
2021/12/02 02:50:25;;;;;;;2.90;0.57;;;;;;;3.31;89.95;98519.53;5004576;28;20260;-56
2021/12/02 02:52:58;;;;;;;4.90;1.00;;;;;;;3.37;90.57;98522.94;5012936;28;20277;-55
2021/12/02 02:55:26;;;;;;;0.97;0.70;;;;;;;3.29;89.39;98525.59;5017652;28;20241;-56
2021/12/02 02:58:01;;;;;;;2.90;1.03;;;;;;;3.32;89.75;98523.84;5016590;28;20289;-55
2021/12/02 03:00:32;;;;;;;2.30;0.70;;;;;;;3.34;88.85;98527.28;5005571;28;20250;-55
2021/12/02 03:03:04;;;;;;;0.70;0.63;;;;;;;3.42;88.50;98519.44;5008283;28;20258;-55
2021/12/02 03:05:37;;;;;;;0.63;0.63;;;;;;;3.52;87.94;98517.66;5004027;28;20307;-56
2021/12/02 03:08:12;;;;;;;1.43;0.70;;;;;;;3.46;86.95;98522.88;5011951;28;20739;-56
2021/12/02 03:10:44;;;;;;;1.17;0.50;;;;;;;3.50;88.07;98525.44;5009066;28;20233;-55
2021/12/02 03:13:16;;;;;;;1.70;0.40;;;;;;;3.44;86.71;98522.00;5007409;28;20236;-56
2021/12/02 03:18:28;;;;;;;3.87;1.33;;;;;;;3.34;89.94;98535.06;5002934;28;20619;-55
2021/12/02 03:20:55;;;;;;;1.03;0.97;;;;;;;3.40;90.75;98551.44;5005866;28;20229;-56
2021/12/02 03:23:22;;;;;;;1.90;0.67;;;;;;;3.37;89.96;98559.25;5004370;28;20942;-55
2021/12/02 03:25:50;;;;;;;2.20;0.60;;;;;;;3.29;90.79;98542.00;5004938;28;20783;-55
2021/12/02 03:28:16;;;;;;;5.10;1.07;;;;;;;3.28;90.79;98560.19;5005418;28;20318;-55
2021/12/02 03:30:43;;;;;;;2.57;0.93;;;;;;;3.23;91.68;98557.63;5004898;28;20232;-56
2021/12/02 03:33:09;;;;;;;0.63;0.60;;;;;;;3.30;91.75;98567.09;5013990;28;20244;-54
2021/12/02 03:35:36;;;;;;;1.60;0.80;;;;;;;3.28;91.44;98560.19;5008482;28;20937;-56
2021/12/02 03:38:02;;;;;;;1.93;0.90;;;;;;;3.31;91.63;98566.22;5008132;28;20259;-55
2021/12/02 03:40:28;;;;;;;1.57;0.90;;;;;;;3.29;91.10;98567.09;5009051;28;20255;-56
2021/12/02 03:42:56;;;;;;;1.30;0.60;;;;;;;3.35;91.48;98575.69;5010101;28;20236;-56
2021/12/02 03:45:24;;;;;;;0.30;0.30;;;;;;;3.23;90.33;98572.31;5006571;28;20285;-55
2021/12/02 03:47:51;;;;;;;0.80;0.40;;;;;;;3.28;90.31;98588.72;5005510;28;20323;-56
2021/12/02 03:50:17;;;;;;;1.53;0.50;;;;;;;3.22;90.82;98587.00;5002648;28;21109;-56
2021/12/02 03:52:43;;;;;;;0.43;0.43;;;;;;;3.32;91.29;98599.06;5001645;28;20237;-56
2021/12/02 03:55:10;;;;;;;1.87;0.63;;;;;;;3.30;90.42;98595.63;5002965;28;20244;-56
2021/12/02 03:57:36;;;;;;;2.73;0.83;;;;;;;3.13;91.08;98597.44;5006752;28;20268;-55
2021/12/02 04:00:05;;;;;;;0.70;0.70;;;;;;;3.20;91.71;98609.50;5009760;28;20318;-56
2021/12/02 04:02:31;;;;;;;2.20;0.80;;;;;;;3.11;92.26;98588.81;5004390;28;20259;-55
2021/12/02 04:04:58;;;;;;;2.83;1.47;;;;;;;3.27;92.11;98606.00;5004515;28;20252;-55
2021/12/02 04:07:26;;;;;;;1.50;0.60;;;;;;;3.15;91.83;98613.84;5003128;28;20298;-54
2021/12/02 04:09:53;;;;;;;0.73;0.73;;;;;;;3.21;92.04;98600.00;5002615;28;20228;-55
2021/12/02 04:12:25;;;;;;;0.90;0.60;;;;;;;3.19;91.67;98617.28;5001584;28;20237;-55
2021/12/02 04:14:55;;;;;;;1.40;0.60;;;;;;;3.18;90.54;98629.38;5005052;28;20239;-56
2021/12/02 04:17:40;;;;;;;1.40;0.73;;;;;;;3.14;90.65;98612.13;5001373;28;20998;-55
2021/12/02 04:20:09;;;;;;;1.63;0.50;;;;;;;3.14;90.63;98619.91;5005086;28;20240;-55
2021/12/02 04:22:35;;;;;;;4.00;0.73;;;;;;;3.16;89.68;98632.84;5002483;28;20314;-56
2021/12/02 04:25:01;;;;;;;2.10;0.90;;;;;;;3.18;90.46;98650.13;5003822;28;20247;-57
2021/12/02 04:27:27;;;;;;;1.37;0.97;;;;;;;3.09;89.96;98645.00;5004959;28;20256;-56
2021/12/02 04:29:54;;;;;;;1.60;0.73;;;;;;;3.10;90.28;98628.56;5004415;28;20290;-54
2021/12/02 04:32:20;;;;;;;1.03;0.60;;;;;;;3.10;90.86;98649.31;5004832;28;20671;-55
2021/12/02 04:34:48;;;;;;;0.70;0.70;;;;;;;2.90;90.25;98651.97;5004941;28;20227;-57
2021/12/02 04:37:14;;;;;;;0.53;0.50;;;;;;;2.96;90.06;98656.28;5002228;28;20251;-55
2021/12/02 04:39:40;;;;;;;1.50;1.10;;;;;;;3.00;90.65;98663.19;5006296;28;20236;-55
2021/12/02 04:42:07;;;;;;;3.70;0.60;;;;;;;3.05;90.29;98664.00;5006508;28;20243;-56
2021/12/02 04:44:33;;;;;;;2.17;1.37;;;;;;;2.94;90.06;98670.97;5011171;28;20239;-57
2021/12/02 04:46:59;;;;;;;2.27;0.50;;;;;;;2.84;90.08;98681.41;5009721;28;20240;-55
2021/12/02 04:49:26;;;;;;;0.50;0.50;;;;;;;2.97;90.07;98696.88;5009990;28;20287;-56
2021/12/02 04:51:54;;;;;;;2.97;0.70;;;;;;;2.87;91.49;98689.13;5007876;28;20292;-55
2021/12/02 04:54:20;;;;;;;1.67;1.10;;;;;;;2.93;90.13;98693.44;5005871;28;20308;-55
2021/12/02 04:56:46;;;;;;;0.73;0.60;;;;;;;2.87;88.90;98696.03;5008351;28;20263;-55
2021/12/02 04:59:13;;;;;;;3.60;0.67;;;;;;;2.98;89.60;98696.00;5007511;28;20227;-56
2021/12/02 05:01:39;;;;;;;1.03;0.70;;;;;;;2.95;89.87;98704.69;5008073;28;20689;-56
2021/12/02 05:04:05;;;;;;;2.87;0.90;;;;;;;2.94;88.20;98705.53;5008017;28;20271;-54
2021/12/02 05:06:32;;;;;;;1.33;0.90;;;;;;;2.79;87.38;98703.00;5008619;28;20670;-56
2021/12/02 05:08:59;;;;;;;3.17;0.93;;;;;;;2.76;87.18;98711.63;5007142;28;20599;-55
2021/12/02 05:11:26;;;;;;;0.70;0.70;;;;;;;2.82;87.36;98711.63;5011299;23;20318;-54
2021/12/02 05:13:52;;;;;;;0.60;0.60;;;;;;;2.78;88.13;98725.44;5009334;28;20240;-54
2021/12/02 05:16:18;;;;;;;0.50;0.50;;;;;;;2.84;89.55;98716.78;5008557;28;20298;-52
2021/12/02 05:18:45;;;;;;;0.77;0.70;;;;;;;2.87;88.08;98712.44;5007017;28;20656;-53
2021/12/02 05:21:12;;;;;;;1.13;0.80;;;;;;;2.99;88.59;98721.94;5011968;28;20645;-53
2021/12/02 05:23:38;;;;;;;5.77;0.97;;;;;;;2.91;88.37;98720.22;5007621;28;20224;-53
2021/12/02 05:26:06;;;;;;;1.70;1.00;;;;;;;2.74;87.85;98731.50;5006185;28;20272;-53
2021/12/02 05:28:32;;;;;;;1.70;0.70;;;;;;;2.79;89.08;98753.09;5009172;28;20298;-54
2021/12/02 05:31:00;;;;;;;0.97;0.63;;;;;;;2.81;88.49;98741.00;5016619;28;20240;-56
2021/12/02 05:33:26;;;;;;;0.53;0.40;;;;;;;2.79;87.21;98747.91;5018521;28;20265;-54
2021/12/02 05:35:52;;;;;;;1.30;0.73;;;;;;;2.80;86.71;98752.22;5009152;28;20285;-54
2021/12/02 05:38:19;;;;;;;0.77;0.27;;;;;;;2.78;86.86;98755.69;5009491;28;20712;-55
2021/12/02 05:40:45;;;;;;;0.73;0.60;;;;;;;2.80;86.34;98759.97;5005423;28;20322;-55
2021/12/02 05:43:13;;;;;;;1.10;0.77;;;;;;;2.74;87.00;98769.50;5008571;28;20243;-54
2021/12/02 05:45:39;;;;;;;1.33;0.90;;;;;;;2.73;85.86;98765.19;5005657;28;20236;-53
2021/12/02 05:48:06;;;;;;;0.87;0.50;;;;;;;2.76;86.94;98767.78;5003603;28;20721;-54
2021/12/02 05:50:32;;;;;;;1.27;0.53;;;;;;;2.62;85.43;98776.41;5010283;28;21018;-56
2021/12/02 05:52:58;;;;;;;2.83;0.90;;;;;;;2.75;85.86;98772.09;5009506;28;20224;-52
2021/12/02 05:55:25;;;;;;;0.47;0.47;;;;;;;2.76;85.69;98779.00;5004695;28;20784;-54
2021/12/02 05:57:51;;;;;;;2.10;1.03;;;;;;;2.81;85.54;98779.88;5007503;28;20648;-54
2021/12/02 06:00:19;;;;;;;0.60;0.60;;;;;;;2.86;85.70;98783.31;4999628;28;20684;-53
2021/12/02 06:02:46;;;;;;;0.83;0.83;;;;;;;2.80;85.23;98785.91;5007033;28;20262;-54
2021/12/02 06:05:17;;;;;;;1.97;0.93;;;;;;;2.93;85.14;98775.53;5004965;28;20240;-53
2021/12/02 06:07:44;;;;;;;0.93;0.50;;;;;;;2.86;84.59;98785.03;5006196;28;20239;-55
2021/12/02 06:10:10;;;;;;;0.80;0.77;;;;;;;2.70;83.42;98786.75;5009242;28;20239;-53
2021/12/02 06:12:37;;;;;;;1.43;0.63;;;;;;;2.85;84.85;98796.28;5007112;28;20233;-54
2021/12/02 06:15:04;;;;;;;3.10;1.13;;;;;;;2.81;85.07;98795.41;5008048;28;20270;-53
2021/12/02 06:17:32;;;;;;;0.63;0.60;;;;;;;2.91;84.30;98808.34;5010863;28;20258;-54
2021/12/02 06:19:59;;;;;;;0.90;0.70;;;;;;;2.87;83.65;98818.72;5003701;28;20294;-55
2021/12/02 06:22:25;;;;;;;3.20;0.67;;;;;;;2.83;84.16;98822.19;5006954;28;20294;-54
2021/12/02 06:25:05;;;;;;;1.90;1.10;;;;;;;2.73;84.71;98820.44;5013404;28;20253;-55
2021/12/02 06:27:32;;;;;;;4.10;0.63;;;;;;;2.74;84.63;98832.56;4999673;28;20303;-55
2021/12/02 06:29:58;;;;;;;4.70;0.80;;;;;;;2.73;83.98;98835.13;5010176;28;20258;-56
2021/12/02 06:32:24;;;;;;;1.80;0.70;;;;;;;2.69;83.96;98842.03;5009003;28;20255;-53
2021/12/02 06:34:52;;;;;;;1.70;0.80;;;;;;;2.69;85.04;98844.63;5004566;28;20259;-53
2021/12/02 06:37:18;;;;;;;3.60;0.73;;;;;;;2.73;84.86;98845.50;5005501;28;20266;-57
2021/12/02 06:39:45;;;;;;;3.87;0.97;;;;;;;2.66;84.39;98855.00;5011559;28;20263;-53
2021/12/02 06:42:11;;;;;;;0.77;0.67;;;;;;;2.66;85.21;98855.00;5007858;28;20605;-53
2021/12/02 06:44:38;;;;;;;2.90;0.73;;;;;;;2.66;84.28;98865.38;5007715;28;20355;-52
2021/12/02 06:47:04;;;;;;;0.93;0.60;;;;;;;2.65;85.42;98867.97;5019528;28;20235;-56
2021/12/02 06:49:32;;;;;;;0.80;0.70;;;;;;;2.62;85.61;98876.59;5004286;28;20233;-56
2021/12/02 06:52:01;;;;;;;3.60;0.77;;;;;;;2.54;85.88;98868.81;5010511;28;20243;-52
2021/12/02 06:54:27;;;;;;;1.03;0.90;;;;;;;2.52;85.67;98861.91;5007449;28;20232;-53
2021/12/02 06:56:54;;;;;;;2.00;0.67;;;;;;;2.53;85.12;98874.88;5008860;28;20283;-57
2021/12/02 06:59:21;;;;;;;1.43;0.70;;;;;;;2.47;85.18;98876.59;5008650;28;20244;-53
2021/12/02 07:01:47;;;;;;;2.73;1.03;;;;;;;2.42;85.26;98888.66;5008768;28;20228;-54
2021/12/02 07:04:14;;;;;;;0.70;0.70;;;;;;;2.37;84.59;98894.69;5019970;28;20235;-55
2021/12/02 07:06:40;;;;;;;1.17;0.67;;;;;;;2.38;85.62;98901.59;5016682;28;20258;-52
2021/12/02 07:09:08;;;;;;;0.97;0.40;;;;;;;2.39;84.72;98908.50;5013669;28;20720;-59
2021/12/02 07:11:34;;;;;;;1.87;0.60;;;;;;;2.24;84.53;98910.19;5017598;28;20236;-54
2021/12/02 07:14:04;;;;;;;0.70;0.70;;;;;;;2.38;85.52;98917.13;5010220;28;20228;-55
2021/12/02 07:16:32;;;;;;;1.00;0.73;;;;;;;2.32;84.42;98916.28;5017808;28;20764;-53
2021/12/02 07:18:58;;;;;;;1.07;0.83;;;;;;;2.37;84.95;98912.81;5025539;28;20228;-54
2021/12/02 07:21:26;;;;;;;1.27;0.77;;;;;;;2.41;85.14;98931.81;5027114;28;20307;-53
2021/12/02 07:23:53;;;;;;;2.78;1.08;;;;;;;2.47;84.55;98934.41;5027591;28;20438;-56
2021/12/02 07:26:20;;;;;;;4.00;0.63;;;;;;;2.34;82.99;98928.34;5020783;28;20260;-52
2021/12/02 07:28:47;;;;;;;1.97;0.60;;;;;;;2.37;81.98;98930.94;5020417;28;20232;-57
2021/12/02 07:31:14;;;;;;;3.30;1.00;;;;;;;2.32;82.30;98931.81;5036680;28;20732;-56
2021/12/02 07:33:47;;;;;;;1.67;0.70;;;;;;;2.35;82.16;98948.22;5029453;28;20286;-55
2021/12/02 07:36:13;;;;;;;1.80;1.50;;;;;;;2.41;81.61;98941.31;5034673;28;20251;-54
2021/12/02 07:38:40;;;;;;;1.52;0.60;;;;;;;2.54;80.98;98949.13;5026770;28;20410;-55
2021/12/02 07:41:06;;;;;;;1.17;0.77;;;;;;;2.44;81.07;98954.28;5031709;28;20417;-54
2021/12/02 07:43:35;;;;;;;0.70;0.70;;;;;;;2.48;81.24;98958.59;5030414;28;20455;-54
2021/12/02 07:46:02;;;;;;;2.93;1.03;;;;;;;2.59;80.76;98967.25;5033715;28;20256;-55
2021/12/02 07:48:29;;;;;;;1.50;1.17;;;;;;;2.69;80.49;98969.00;5038037;28;20227;-56
2021/12/02 07:50:56;;;;;;;1.33;1.23;;;;;;;2.74;81.26;98967.31;5053494;28;20219;-56
2021/12/02 07:53:24;;;;;;;3.63;0.90;;;;;;;2.60;79.70;98981.97;5020091;28;20336;-58
2021/12/02 07:55:52;;;;;;;1.10;0.80;;;;;;;2.60;80.49;98989.72;5013347;28;20236;-54
2021/12/02 07:58:21;;;;;;;4.80;0.87;;;;;;;2.63;80.00;98998.38;5004351;28;20236;-53
2021/12/02 08:00:50;;;;;;;1.93;1.20;;;;;;;2.71;80.01;98998.38;5006130;28;20294;-54
2021/12/02 08:03:16;;;;;;;2.53;0.70;;;;;;;2.66;80.73;99000.09;5001874;28;20715;-54
2021/12/02 08:05:43;;;;;;;3.63;1.17;;;;;;;2.62;81.50;99000.94;5004984;28;20243;-54
2021/12/02 08:08:10;;;;;;;3.80;0.90;;;;;;;2.69;80.32;99013.06;5011013;28;20264;-54
2021/12/02 08:10:37;;;;;;;4.10;0.90;;;;;;;2.70;80.47;99017.38;5003753;28;20246;-54
2021/12/02 08:13:04;;;;;;;1.25;0.77;;;;;;;2.75;80.71;99014.81;5004038;28;20420;-55
2021/12/02 08:15:31;;;;;;;1.03;0.60;;;;;;;2.73;81.36;99022.56;5006420;28;20236;-53
2021/12/02 08:17:59;;;;;;;2.33;0.83;;;;;;;2.77;79.65;99026.91;5006630;28;20239;-53
2021/12/02 08:20:27;;;;;;;1.17;0.80;;;;;;;2.62;80.45;99045.84;5004233;28;20244;-54
2021/12/02 08:22:54;;;;;;;1.33;0.90;;;;;;;2.65;80.43;99044.13;5004446;28;20251;-53
2021/12/02 08:25:21;;;;;;;2.50;0.80;;;;;;;2.65;80.72;99057.94;5021821;28;20239;-55
2021/12/02 08:27:49;;;;;;;0.80;0.80;;;;;;;2.75;79.70;99064.91;5009368;28;20324;-54
2021/12/02 08:30:16;;;;;;;4.37;1.30;;;;;;;2.82;79.86;99056.28;5009338;28;20256;-52
2021/12/02 08:32:45;;;;;;;1.00;0.57;;;;;;;2.70;80.39;99082.13;5003765;28;20319;-55
2021/12/02 08:35:15;;;;;;;4.13;1.33;;;;;;;2.79;79.58;99079.59;5008900;28;20247;-53
2021/12/02 08:37:44;;;;;;;1.57;0.77;;;;;;;2.90;80.61;99091.72;5011527;28;20234;-52
2021/12/02 08:40:12;;;;;;;2.60;0.90;;;;;;;2.89;79.11;99096.06;5012123;28;20428;-54
2021/12/02 08:42:38;;;;;;;3.30;1.33;;;;;;;2.73;78.62;99105.47;5019864;28;20245;-55
2021/12/02 08:45:05;;;;;;;8.07;1.07;;;;;;;2.83;79.21;99102.06;5020935;28;20236;-54
2021/12/02 08:47:32;;;;;;;4.47;1.37;;;;;;;2.70;77.48;99108.06;5015235;28;20292;-52
2021/12/02 08:49:58;;;;;;;1.60;1.13;;;;;;;2.66;78.76;99114.09;5005420;28;20242;-53
2021/12/02 08:52:28;;;;;;;1.83;1.03;;;;;;;2.58;78.76;99116.66;5005150;28;20638;-53
2021/12/02 08:54:56;;;;;;;5.60;1.03;;;;;;;2.53;78.97;99118.34;5004564;28;20278;-52
2021/12/02 08:57:24;;;;;;;1.80;0.87;;;;;;;2.59;78.88;99113.19;5004887;28;20243;-52
2021/12/02 08:59:51;;;;;;;1.13;1.10;;;;;;;2.59;78.07;99122.69;5004619;28;20236;-52
2021/12/02 09:02:18;;;;;;;0.93;0.70;;;;;;;2.59;78.15;99122.69;5004100;28;20290;-53
2021/12/02 09:04:44;;;;;;;2.27;0.97;;;;;;;2.47;77.90;99128.69;5006758;28;20764;-53
2021/12/02 09:07:11;;;;;;;1.47;0.90;;;;;;;2.54;78.04;99130.44;5009304;28;20328;-52
2021/12/02 09:09:38;;;;;;;2.00;0.93;;;;;;;2.53;78.14;99133.91;5005697;28;20270;-51
2021/12/02 09:12:05;;;;;;;5.10;1.00;;;;;;;2.53;77.11;99138.22;5003305;28;20244;-53
2021/12/02 09:14:31;;;;;;;1.10;0.80;;;;;;;2.76;77.56;99136.59;5006265;28;20239;-53
2021/12/02 09:16:58;;;;;;;5.17;1.23;;;;;;;2.88;76.82;99135.81;5011587;28;20332;-52
2021/12/02 09:19:24;;;;;;;1.50;0.97;;;;;;;2.81;74.68;99149.59;5012853;28;20306;-53
2021/12/02 09:21:51;;;;;;;3.60;1.20;;;;;;;2.83;75.37;99146.13;5011582;28;20229;-55
2021/12/02 09:24:19;;;;;;;0.63;0.60;;;;;;;2.87;74.29;99150.47;5015366;28;20743;-54
2021/12/02 09:26:47;;;;;;;1.00;0.90;;;;;;;2.78;73.30;99165.13;5005157;28;20233;-54
2021/12/02 09:29:13;;;;;;;0.90;0.67;;;;;;;2.93;72.69;99149.63;5009859;28;20800;-53
2021/12/02 09:31:40;;;;;;;1.40;0.60;;;;;;;2.86;72.68;99164.28;5009580;28;20252;-54
2021/12/02 09:34:06;;;;;;;2.07;1.00;;;;;;;2.88;72.37;99166.91;5010199;28;20720;-54
2021/12/02 09:36:33;;;;;;;3.63;0.80;;;;;;;2.91;72.66;99158.25;5011219;28;20802;-55
2021/12/02 09:38:59;;;;;;;2.33;0.77;;;;;;;2.91;72.22;99163.44;5023315;28;20247;-55
2021/12/02 09:41:25;;;;;;;0.80;0.77;;;;;;;2.95;71.56;99160.88;5018754;28;20836;-55
2021/12/02 09:43:53;;;;;;;4.43;1.07;;;;;;;2.91;71.08;99169.47;5020332;28;20342;-55
2021/12/02 09:46:20;;;;;;;1.83;1.23;;;;;;;2.96;70.75;99165.19;5018026;28;20267;-53
2021/12/02 09:48:47;;;;;;;3.53;1.73;;;;;;;3.03;70.58;99176.47;5020097;28;20315;-57
2021/12/02 09:51:19;;;;;;;4.57;1.67;;;;;;;2.98;69.18;99178.16;5022467;28;20966;-55
2021/12/02 09:53:52;;;;;;;5.73;1.23;;;;;;;3.06;69.97;99159.19;5016186;28;20232;-55
2021/12/02 09:56:24;;;;;;;3.53;1.40;;;;;;;3.18;68.87;99166.13;5018204;28;20315;-54
2021/12/02 09:58:52;;;;;;;2.27;1.17;;;;;;;3.16;69.18;99169.56;5015279;28;20262;-54
2021/12/02 10:01:23;;;;;;;0.80;0.80;;;;;;;3.19;68.72;99167.84;5015369;28;20229;-54
2021/12/02 10:03:59;;;;;;;1.33;0.80;;;;;;;3.19;68.75;99173.03;5007691;28;20255;-54
2021/12/02 10:06:29;;;;;;;1.80;1.17;;;;;;;3.18;68.77;99170.47;5005508;28;20235;-54
2021/12/02 10:09:00;;;;;;;1.47;0.67;;;;;;;3.16;68.85;99178.25;5005458;28;20234;-53
2021/12/02 10:11:28;;;;;;;14.63;1.33;;;;;;;3.20;68.83;99169.63;5005846;28;20244;-51
2021/12/02 10:14:00;;;;;;;3.73;1.50;;;;;;;3.10;69.12;99173.03;5008729;28;20514;-53
2021/12/02 10:16:30;;;;;;;1.70;1.00;;;;;;;3.04;69.67;99185.97;5006535;28;20236;-52
2021/12/02 10:19:03;;;;;;;2.37;1.00;;;;;;;3.16;69.72;99183.44;5011406;28;20312;-54
2021/12/02 10:21:36;;;;;;;3.17;1.03;;;;;;;3.19;70.08;99180.81;5008253;28;20271;-53
2021/12/02 10:24:05;;;;;;;3.43;1.00;;;;;;;3.22;70.44;99190.34;5008863;28;20239;-53
2021/12/02 10:26:36;;;;;;;4.10;1.70;;;;;;;3.24;71.04;99197.28;5009577;28;20974;-54
2021/12/02 10:29:08;;;;;;;5.57;1.40;;;;;;;3.40;69.51;99197.31;5016757;28;20300;-54
2021/12/02 10:31:38;;;;;;;2.20;1.07;;;;;;;3.40;67.59;99197.31;5017320;28;20250;-54
2021/12/02 10:34:05;;;;;;;3.50;1.30;;;;;;;3.42;68.46;99204.25;5022609;28;20243;-54
2021/12/02 10:36:34;;;;;;;3.43;1.00;;;;;;;3.41;68.50;99207.72;5014572;28;20243;-52
2021/12/02 10:39:08;;;;;;;1.07;0.97;;;;;;;3.42;69.36;99211.19;5009040;28;20269;-53
2021/12/02 10:41:34;;;;;;;2.77;1.23;;;;;;;3.38;68.81;99219.81;5005471;28;20356;-54
2021/12/02 10:44:12;;;;;;;3.43;1.30;;;;;;;3.45;68.61;99213.78;5014642;28;20228;-56
2021/12/02 10:46:53;;;;;;;10.97;6.63;;;;;;;3.37;68.82;99210.28;5016637;28;20823;-52
2021/12/02 10:49:21;;;;;;;4.40;2.27;;;;;;;3.39;69.23;99219.81;5011728;28;20228;-52
2021/12/02 10:51:50;;;;;;;3.77;0.97;;;;;;;3.35;68.05;99224.13;5007618;28;20660;-54
2021/12/02 10:54:19;;;;;;;1.80;1.57;;;;;;;3.37;68.55;99224.16;5007590;28;20651;-54
2021/12/02 10:56:48;;;;;;;5.63;1.20;;;;;;;3.44;68.81;99219.81;5013948;28;20384;-54
2021/12/02 10:59:29;;;;;;;1.53;0.80;;;;;;;3.47;67.95;99225.03;5010783;28;20243;-55
2021/12/02 11:01:59;;;;;;;1.93;0.90;;;;;;;3.48;67.49;99242.34;5006974;28;20232;-52
2021/12/02 11:04:25;;;;;;;1.50;0.90;;;;;;;3.44;67.13;99225.91;5007277;28;20308;-54
2021/12/02 11:06:59;;;;;;;3.67;1.10;;;;;;;3.41;67.60;99219.84;5007468;28;20228;-54
2021/12/02 11:09:28;;;;;;;3.93;1.20;;;;;;;3.53;68.40;99227.63;5007499;28;20323;-54
2021/12/02 11:12:23;;;;;;;2.43;0.90;;;;;;;3.63;66.52;99226.81;5016675;23;20260;-54
2021/12/02 11:15:02;;;;;;;1.00;0.60;;;;;;;3.59;67.14;99231.13;4977645;28;20412;-54
2021/12/02 11:17:32;;;;;;;0.77;0.77;;;;;;;3.68;67.45;99239.78;5007115;28;20311;-54
2021/12/02 11:20:00;;;;;;;2.07;0.80;;;;;;;3.62;67.75;99240.66;5011424;28;20554;-55
2021/12/02 11:22:28;;;;;;;1.80;0.93;;;;;;;3.50;66.05;99245.78;5008388;28;20267;-57
2021/12/02 11:24:55;;;;;;;0.87;0.67;;;;;;;3.52;66.54;99238.88;4999920;28;20279;-55
2021/12/02 11:27:23;;;;;;;3.50;0.63;;;;;;;3.54;66.56;99238.00;5003905;28;20236;-55
2021/12/02 11:30:04;;;;;;;1.70;1.17;;;;;;;3.59;66.59;99241.50;5007609;28;20252;-55
2021/12/02 11:32:39;;;;;;;1.80;1.10;;;;;;;3.55;66.30;99244.09;5005882;28;20391;-55
2021/12/02 11:35:12;;;;;;;2.40;0.80;;;;;;;3.59;66.41;99248.44;5008126;28;20289;-54
2021/12/02 11:37:41;;;;;;;2.93;1.10;;;;;;;3.69;66.23;99247.59;5005965;28;20691;-54
2021/12/02 11:40:11;;;;;;;2.30;1.20;;;;;;;3.77;67.08;99253.66;5001527;28;20237;-54
2021/12/02 11:42:38;;;;;;;3.37;1.43;;;;;;;3.81;67.45;99259.72;5005297;28;20327;-54
2021/12/02 11:45:06;;;;;;;4.60;0.83;;;;;;;3.91;67.14;99253.69;5004596;28;20275;-54
2021/12/02 11:47:34;;;;;;;3.77;1.30;;;;;;;4.02;66.74;99258.91;5006547;28;20241;-56
2021/12/02 11:50:01;;;;;;;2.00;0.90;;;;;;;3.95;64.75;99270.13;5009727;28;20233;-54
2021/12/02 11:52:27;;;;;;;1.50;1.03;;;;;;;3.89;65.06;99268.38;5006713;28;20236;-54